FAWB/PRY METAR and TAF weather

Enter ICAO airport designator
Station Type Date Time Source
FAWB METAR 2018/01/16 09:00 UTC NOAA

FAWB 160900Z 06005KT 9999 SCT035 25/12 Q1023


Station Type Date Time Source
FAWB Decoded METAR 2018/01/16 09:00 UTC NOAA

Wonderboom / Pretoria, South Africa (FAWB) 25-39S 028-13E
Jan 16, 2018 - 04:00 AM EST / 2018.01.16 0900 UTC
Wind: from the ENE (060 degrees) at 6 MPH (5 KT):0
Visibility: greater than 7 mile(s):0
Sky conditions: partly cloudy
Temperature: 77 F (25 C)
Dew Point: 53 F (12 C)
Relative Humidity: 44%
Pressure (altimeter): 30.21 in. Hg (1023 hPa)
ob: FAWB 160900Z 06005KT 9999 SCT035 25/12 Q1023
cycle: 9

Station Type Date Time Source
FAWB TAF 2017/10/28 07:00 UTC NOAA

TAF FAWB 280600Z 2807/2818 10015KT 9999 BKN025
BECMG 2813/2815 06010KT TX18/2813Z TN14/2818Z


Example: see airport list